Time;durP1;ratioP1;P1;durP2;ratioP2;P2;SDS_P1;SDS_P2;PMS_P1;PMS_P2;Temp;Humidity;BMP_temperature;BMP_pressure;BME280_temperature;BME280_humidity;BME280_pressure;Samples;Min_cycle;Max_cycle;Signal;HPM_P1;HPM_P2
2021/04/13 00:02:28;;;;;;;12.30;11.10;;;;;;;0.28;79.71;96630.13;4976868;28;20054;-72
2021/04/13 00:05:00;;;;;;;15.60;12.82;;;;;;;0.25;80.40;96629.41;4975771;28;20065;-72
2021/04/13 00:07:29;;;;;;;12.43;11.05;;;;;;;0.27;79.80;96632.78;4977520;28;20046;-72
2021/04/13 00:10:00;;;;;;;11.55;10.55;;;;;;;0.22;81.18;96634.66;4964581;28;20030;-72
2021/04/13 00:12:29;;;;;;;11.88;10.43;;;;;;;0.22;80.17;96627.75;4976217;28;20094;-72
2021/04/13 00:15:00;;;;;;;11.60;10.50;;;;;;;0.27;79.53;96622.41;4975492;28;20126;-71
2021/04/13 00:17:31;;;;;;;11.80;10.70;;;;;;;0.29;79.36;96641.34;4972728;28;20050;-72
2021/04/13 00:20:27;;;;;;;13.20;11.80;;;;;;;0.22;80.50;96632.94;4981700;28;20018;-72
2021/04/13 00:22:55;;;;;;;17.83;15.43;;;;;;;0.08;81.07;96633.44;4975933;28;20066;-71
2021/04/13 00:25:57;;;;;;;15.27;13.07;;;;;;;0.07;80.98;96633.47;4975450;28;20038;-72
2021/04/13 00:28:40;;;;;;;16.48;13.70;;;;;;;0.05;81.93;96640.44;4976084;28;20085;-72
2021/04/13 00:31:08;;;;;;;14.75;13.25;;;;;;;-0.04;81.62;96634.69;4977460;28;20035;-72
2021/04/13 00:33:36;;;;;;;14.57;13.10;;;;;;;-0.10;82.49;96637.50;4976428;28;20038;-71
2021/04/13 00:36:10;;;;;;;13.73;12.40;;;;;;;-0.01;81.27;96636.31;4974939;28;20031;-72
2021/04/13 00:38:39;;;;;;;16.58;14.02;;;;;;;0.19;80.32;96638.22;4975392;28;20037;-72
2021/04/13 00:41:07;;;;;;;14.48;12.73;;;;;;;0.03;81.98;96637.06;4964967;28;20023;-71
2021/04/13 00:43:34;;;;;;;13.98;12.35;;;;;;;-0.05;81.50;96625.25;4970235;28;20023;-72
2021/04/13 00:46:00;;;;;;;13.23;11.93;;;;;;;0.01;81.63;96636.28;4969974;28;20034;-71
2021/04/13 00:48:33;;;;;;;15.75;12.40;;;;;;;-0.02;80.76;96635.50;4976763;28;20085;-71
2021/04/13 00:51:24;;;;;;;14.40;13.00;;;;;;;-0.02;81.24;96632.91;4976757;28;20026;-71
2021/04/13 00:53:58;;;;;;;15.30;13.77;;;;;;;-0.07;81.35;96634.81;4974417;28;20039;-72
2021/04/13 00:56:24;;;;;;;16.10;14.35;;;;;;;-0.12;81.43;96635.88;4976528;28;20019;-72
2021/04/13 00:58:59;;;;;;;16.27;14.52;;;;;;;-0.14;81.13;96641.09;4977107;28;20049;-71
2021/04/13 01:01:26;;;;;;;;;;;;;;;-0.17;81.42;96639.47;4977218;28;20073;-72
2021/04/13 01:04:02;;;;;;;15.35;13.82;;;;;;;-0.12;81.56;96628.94;4975574;28;20330;-71
2021/04/13 01:06:33;;;;;;;12.40;11.27;;;;;;;-0.17;81.84;96636.88;4964229;28;20031;-71
2021/04/13 01:09:06;;;;;;;14.93;13.52;;;;;;;-0.13;81.30;96636.75;4973149;28;20030;-72
2021/04/13 01:11:39;;;;;;;14.90;13.50;;;;;;;-0.09;81.27;96639.19;4984651;28;20034;-72
2021/04/13 01:14:05;;;;;;;13.95;12.45;;;;;;;-0.13;81.75;96629.00;4979728;28;20149;-72
2021/04/13 01:16:34;;;;;;;12.48;11.38;;;;;;;-0.12;81.58;96633.28;4979618;28;20054;-72
2021/04/13 01:19:11;;;;;;;12.77;11.68;;;;;;;-0.20;81.27;96630.94;4981265;28;20027;-72
2021/04/13 01:21:53;;;;;;;12.73;11.52;;;;;;;-0.20;82.07;96628.34;4981639;28;20033;-72
2021/04/13 01:24:25;;;;;;;12.85;11.55;;;;;;;-0.27;81.89;96627.72;4980155;28;20031;-72
2021/04/13 01:26:53;;;;;;;12.95;11.73;;;;;;;-0.32;81.67;96630.47;4966222;28;20039;-72
2021/04/13 01:29:23;;;;;;;13.73;12.57;;;;;;;-0.37;82.49;96636.69;4980278;28;20109;-72
2021/04/13 01:31:55;;;;;;;13.63;12.50;;;;;;;-0.37;82.24;96627.19;4979448;28;20030;-72
2021/04/13 01:34:41;;;;;;;12.93;11.75;;;;;;;-0.39;82.41;96630.75;4978905;28;20019;-71
2021/04/13 01:40:22;;;;;;;12.10;11.00;;;;;;;-0.51;82.86;96624.22;4969600;28;20454;-71
2021/04/13 01:42:52;;;;;;;11.30;10.00;;;;;;;-0.47;82.26;96628.41;4972934;28;20762;-72
2021/04/13 01:45:27;;;;;;;12.30;11.18;;;;;;;-0.42;82.21;96625.66;4973590;28;20019;-71
2021/04/13 01:47:55;;;;;;;11.73;10.73;;;;;;;-0.37;82.15;96616.84;4977148;28;20106;-71
2021/04/13 01:50:26;;;;;;;13.00;11.90;;;;;;;-0.41;82.84;96628.19;4962401;28;20110;-71
2021/04/13 01:53:01;;;;;;;15.50;10.75;;;;;;;-0.45;82.97;96634.38;4971962;28;20055;-71
2021/04/13 01:55:31;;;;;;;12.52;11.40;;;;;;;-0.47;81.93;96634.41;4965301;28;20107;-72
2021/04/13 01:58:22;;;;;;;11.10;10.10;;;;;;;-0.54;82.61;96626.91;4975929;28;20511;-72
2021/04/13 02:01:13;;;;;;;12.38;11.25;;;;;;;-0.55;82.38;96632.97;4965567;28;20086;-71
2021/04/13 02:03:41;;;;;;;12.43;11.18;;;;;;;-0.55;81.84;96636.41;4969098;28;20097;-71
2021/04/13 02:06:19;;;;;;;11.73;10.65;;;;;;;-0.55;82.79;96632.97;4974825;28;20023;-72
2021/04/13 02:08:52;;;;;;;12.50;11.43;;;;;;;-0.54;82.51;96634.69;4975989;28;20047;-71
2021/04/13 02:11:24;;;;;;;13.27;12.18;;;;;;;-0.58;82.22;96634.75;4970301;28;20066;-72
2021/04/13 02:13:58;;;;;;;13.00;11.77;;;;;;;-0.64;82.56;96632.38;4969838;28;20130;-72
2021/04/13 02:16:33;;;;;;;12.10;11.00;;;;;;;-0.68;82.48;96633.38;4978960;28;20073;-71
2021/04/13 02:19:01;;;;;;;13.55;12.38;;;;;;;-0.73;83.17;96632.69;4978860;28;20023;-72
2021/04/13 02:22:03;;;;;;;13.73;12.52;;;;;;;-0.71;83.60;96630.91;4978663;28;20026;-71
2021/04/13 02:24:35;;;;;;;16.58;14.68;;;;;;;-0.76;82.83;96632.78;4972907;28;20548;-71
2021/04/13 02:27:14;;;;;;;15.48;13.98;;;;;;;-0.82;83.35;96630.38;4978947;28;20085;-71
2021/04/13 02:29:44;;;;;;;17.25;13.77;;;;;;;-0.81;83.41;96634.66;4978545;28;20478;-72
2021/04/13 02:32:23;;;;;;;17.15;13.45;;;;;;;-0.84;83.81;96635.63;4978743;28;20069;-71
2021/04/13 02:34:53;;;;;;;14.73;13.23;;;;;;;-0.93;83.96;96639.34;4975392;28;20031;-72
2021/04/13 02:37:35;;;;;;;15.35;13.95;;;;;;;-0.94;84.51;96650.56;4978204;28;20022;-71
2021/04/13 02:40:09;;;;;;;15.13;13.55;;;;;;;-0.96;83.52;96646.34;4973425;28;20031;-72
2021/04/13 02:42:38;;;;;;;14.32;12.95;;;;;;;-0.96;83.69;96646.34;4975906;28;20156;-71
2021/04/13 02:45:08;;;;;;;14.50;13.07;;;;;;;-0.98;83.45;96651.56;4976075;28;20431;-72
2021/04/13 02:47:42;;;;;;;13.25;12.02;;;;;;;-1.04;83.98;96643.97;4978962;28;20054;-71
2021/04/13 02:50:08;;;;;;;13.52;12.38;;;;;;;-1.07;84.01;96644.06;4977082;28;20074;-71
2021/04/13 02:52:39;;;;;;;13.90;12.68;;;;;;;-1.20;84.54;96639.31;4968441;28;20113;-71
2021/04/13 02:55:07;;;;;;;13.80;12.50;;;;;;;-1.19;84.39;96646.16;4977920;28;20050;-72
2021/04/13 02:57:40;;;;;;;14.15;12.65;;;;;;;-1.17;84.02;96646.97;4969757;28;20023;-72
2021/04/13 03:00:32;;;;;;;24.58;19.42;;;;;;;-1.16;84.21;96643.47;4971016;28;20398;-71
2021/04/13 03:03:06;;;;;;;17.65;15.77;;;;;;;-1.20;84.70;96641.03;4972562;28;20483;-71
2021/04/13 03:05:33;;;;;;;18.65;16.67;;;;;;;-1.20;84.26;96649.63;4963792;28;20102;-72
2021/04/13 03:08:10;;;;;;;20.52;16.67;;;;;;;-1.26;83.70;96636.88;4968322;28;20488;-72
2021/04/13 03:10:42;;;;;;;20.02;17.92;;;;;;;-1.33;84.49;96638.81;4970972;28;20050;-72
2021/04/13 03:13:14;;;;;;;16.52;14.80;;;;;;;-1.33;84.53;96643.13;4972883;28;20053;-72
2021/04/13 03:15:42;;;;;;;17.38;15.55;;;;;;;-1.33;84.26;96645.72;4974133;28;20459;-72
2021/04/13 03:18:17;;;;;;;24.30;21.27;;;;;;;-1.29;84.28;96644.72;4969940;28;20764;-72
2021/04/13 03:20:50;;;;;;;16.83;15.15;;;;;;;-1.26;84.10;96633.47;4972229;28;20046;-72
2021/04/13 03:23:20;;;;;;;13.30;11.98;;;;;;;-1.30;83.70;96637.88;4978168;28;20026;-72
2021/04/13 03:25:59;;;;;;;15.00;13.57;;;;;;;-1.32;84.13;96640.53;4976834;28;20038;-72
2021/04/13 03:28:30;;;;;;;17.05;15.27;;;;;;;-1.40;84.95;96647.63;4978057;28;20019;-72
2021/04/13 03:30:57;;;;;;;14.70;13.48;;;;;;;-1.45;84.83;96645.16;4977016;28;20037;-72
2021/04/13 03:33:27;;;;;;;15.32;13.55;;;;;;;-1.42;84.62;96633.09;4971028;28;20030;-72
2021/04/13 03:36:08;;;;;;;14.57;13.27;;;;;;;-1.41;84.76;96645.94;4973910;28;20092;-71
2021/04/13 03:38:37;;;;;;;15.70;14.18;;;;;;;-1.37;84.51;96636.38;4971046;28;20031;-72
2021/04/13 03:41:03;;;;;;;15.88;14.43;;;;;;;-1.34;84.53;96634.53;4976302;28;20146;-72
2021/04/13 03:43:31;;;;;;;15.38;14.07;;;;;;;-1.31;84.80;96641.34;4976703;28;20019;-72
2021/04/13 03:46:07;;;;;;;15.65;14.15;;;;;;;-1.32;85.07;96644.81;4977584;28;20023;-72
2021/04/13 03:48:33;;;;;;;14.80;13.45;;;;;;;-1.33;84.07;96638.81;4970823;28;20023;-72
2021/04/13 03:51:01;;;;;;;13.63;12.43;;;;;;;-1.35;84.78;96639.75;4977695;28;20039;-71
2021/04/13 03:53:47;;;;;;;15.40;14.20;;;;;;;-1.37;84.77;96631.19;4978374;28;20030;-71
2021/04/13 03:56:16;;;;;;;13.88;12.57;;;;;;;-1.38;84.94;96638.09;4970973;28;20034;-70
2021/04/13 03:58:47;;;;;;;14.15;12.88;;;;;;;-1.38;84.50;96639.84;4962195;28;20028;-71
2021/04/13 04:01:17;;;;;;;16.10;13.30;;;;;;;-1.38;84.21;96640.69;4971475;28;20019;-71
2021/04/13 04:03:45;;;;;;;14.32;12.48;;;;;;;-1.42;84.31;96636.50;4972866;28;20106;-72
2021/04/13 04:06:17;;;;;;;12.95;11.85;;;;;;;-1.41;83.74;96640.78;4973697;28;20023;-71
2021/04/13 04:08:47;;;;;;;12.05;10.90;;;;;;;-1.40;84.35;96631.28;4976906;28;20034;-71
2021/04/13 04:11:14;;;;;;;12.52;11.48;;;;;;;-1.41;84.24;96634.78;4973021;28;20042;-72
2021/04/13 04:13:49;;;;;;;11.50;10.60;;;;;;;-1.43;84.32;96631.41;4972294;28;20051;-71
2021/04/13 04:16:33;;;;;;;11.95;10.95;;;;;;;-1.45;84.62;96632.25;4972274;28;20027;-70
2021/04/13 04:19:32;;;;;;;11.70;10.80;;;;;;;-1.48;84.72;96629.75;4974332;28;20031;-71
2021/04/13 04:22:00;;;;;;;11.93;10.93;;;;;;;-1.46;84.07;96640.06;4950347;28;20027;-71
2021/04/13 04:24:39;;;;;;;13.10;11.88;;;;;;;-1.47;84.90;96636.63;4977367;28;20030;-71
2021/04/13 04:27:26;;;;;;;13.50;12.32;;;;;;;-1.51;84.68;96635.03;4971186;28;20077;-71
2021/04/13 04:30:07;;;;;;;14.90;13.57;;;;;;;-1.52;84.45;96638.50;4961381;28;20031;-70
2021/04/13 04:32:33;;;;;;;13.35;12.25;;;;;;;-1.53;84.26;96634.22;4971135;28;20144;-70
2021/04/13 04:35:02;;;;;;;14.30;13.10;;;;;;;-1.49;84.78;96638.41;4970683;28;20101;-70
2021/04/13 04:37:30;;;;;;;12.65;11.55;;;;;;;-1.46;83.73;96627.97;4970992;28;20391;-70
2021/04/13 04:40:26;;;;;;;11.98;10.98;;;;;;;-1.43;83.32;96629.63;4974600;28;20033;-70
2021/04/13 04:42:52;;;;;;;;;;;;;;;-1.38;83.55;96640.69;4976643;28;20033;-70
2021/04/13 04:45:35;;;;;;;11.73;10.73;;;;;;;-1.38;83.31;96645.00;4980298;28;19910;-70
2021/04/13 04:48:18;;;;;;;12.00;10.90;;;;;;;-1.36;83.15;96653.56;4970163;28;20110;-70
2021/04/13 04:50:43;;;;;;;14.18;12.98;;;;;;;-1.39;83.39;96649.31;4980534;28;20023;-70
2021/04/13 04:53:09;;;;;;;11.35;10.45;;;;;;;-1.41;83.10;96650.28;4978809;28;20486;-70
2021/04/13 04:55:34;;;;;;;13.43;11.55;;;;;;;-1.58;84.48;96649.00;4975394;28;20074;-70
2021/04/13 04:58:00;;;;;;;11.43;10.50;;;;;;;-1.66;84.93;96646.66;4967100;28;20058;-70
2021/04/13 05:00:26;;;;;;;12.98;11.93;;;;;;;-1.64;84.56;96649.19;4980099;28;20108;-70
2021/04/13 05:02:51;;;;;;;13.05;11.82;;;;;;;-1.61;84.83;96660.28;4977177;28;20031;-70
2021/04/13 05:05:17;;;;;;;12.70;11.70;;;;;;;-1.59;84.28;96667.97;4979590;28;20487;-70
2021/04/13 05:07:42;;;;;;;13.05;11.65;;;;;;;-1.52;83.51;96661.75;4980538;28;20503;-70
2021/04/13 05:10:08;;;;;;;12.88;11.68;;;;;;;-1.58;84.59;96656.75;4979719;28;20093;-70
2021/04/13 05:12:34;;;;;;;14.32;11.45;;;;;;;-1.60;84.61;96666.28;4980220;28;20057;-70
2021/04/13 05:14:59;;;;;;;13.60;12.27;;;;;;;-1.60;84.84;96663.72;4980500;28;20514;-70
2021/04/13 05:17:25;;;;;;;13.25;12.00;;;;;;;-1.63;84.56;96661.22;4978365;28;20399;-71
2021/04/13 05:19:50;;;;;;;13.50;12.38;;;;;;;-1.66;84.19;96661.28;4978245;28;20026;-70
2021/04/13 05:22:16;;;;;;;14.68;11.23;;;;;;;-1.66;84.38;96661.28;4972754;28;20491;-70
2021/04/13 05:24:42;;;;;;;12.60;11.45;;;;;;;-1.63;84.69;96658.63;4979115;28;20402;-70
2021/04/13 05:27:09;;;;;;;16.67;10.98;;;;;;;-1.50;84.32;96661.72;4979658;28;20023;-70
2021/04/13 05:29:34;;;;;;;10.63;9.73;;;;;;;-1.49;84.26;96666.81;4979068;28;20029;-70
2021/04/13 05:32:01;;;;;;;10.95;10.00;;;;;;;-1.42;84.68;96667.50;4971363;28;20114;-71
2021/04/13 05:34:26;;;;;;;11.10;10.15;;;;;;;-1.43;84.12;96664.97;4967661;28;20029;-70
2021/04/13 05:36:53;;;;;;;11.73;10.55;;;;;;;-1.49;85.12;96669.41;4964319;28;20031;-70
2021/04/13 05:39:20;;;;;;;12.60;11.25;;;;;;;-1.48;84.82;96671.09;4964281;28;20027;-70
2021/04/13 05:41:47;;;;;;;12.85;11.65;;;;;;;-1.48;84.11;96668.50;4965156;28;20109;-70
2021/04/13 05:44:13;;;;;;;13.48;12.27;;;;;;;-1.41;84.32;96671.78;4963025;28;20027;-70
2021/04/13 05:46:39;;;;;;;12.73;11.65;;;;;;;-1.35;83.78;96669.00;4965061;28;20027;-70
2021/04/13 05:49:04;;;;;;;12.90;11.70;;;;;;;-1.31;84.33;96673.22;4967371;28;20042;-70
2021/04/13 05:51:30;;;;;;;12.20;11.20;;;;;;;-1.25;83.56;96673.91;4964708;28;20058;-70
2021/04/13 05:53:56;;;;;;;13.15;11.85;;;;;;;-1.23;83.63;96679.88;4965190;28;20027;-70
2021/04/13 05:56:31;;;;;;;13.25;11.95;;;;;;;-1.17;83.31;96674.53;4964921;28;20034;-71
2021/04/13 05:58:59;;;;;;;27.30;24.40;;;;;;;-1.24;83.87;96673.84;4869071;28;20050;-71
2021/04/13 06:01:28;;;;;;;40.33;35.95;;;;;;;-1.22;83.55;96672.06;4968780;28;20018;-71
2021/04/13 06:03:55;;;;;;;46.05;38.75;;;;;;;-1.23;83.76;96669.53;4960489;28;20023;-71
2021/04/13 06:06:20;;;;;;;40.40;36.05;;;;;;;-1.31;84.84;96672.34;4963732;28;20063;-71
2021/04/13 06:08:47;;;;;;;41.50;35.88;;;;;;;-1.29;84.00;96678.31;4974189;28;20489;-71
2021/04/13 06:11:19;;;;;;;43.53;34.20;;;;;;;-1.24;84.35;96668.69;4976283;28;20070;-71
2021/04/13 06:13:47;;;;;;;36.88;28.05;;;;;;;-1.28;83.97;96672.25;4967158;28;20054;-71
2021/04/13 06:16:15;;;;;;;13.90;12.50;;;;;;;-1.12;82.63;96676.97;4977659;28;20097;-70
2021/04/13 06:18:40;;;;;;;15.90;12.93;;;;;;;-0.56;79.37;96672.66;4972842;28;20019;-70
2021/04/13 06:21:06;;;;;;;13.68;12.23;;;;;;;-0.35;78.38;96674.56;4970804;28;20031;-71
2021/04/13 06:23:32;;;;;;;9.90;9.05;;;;;;;-0.24;77.77;96668.19;4963024;28;20031;-72
2021/04/13 06:25:57;;;;;;;10.55;9.60;;;;;;;-0.19;76.71;96679.22;4965732;28;20066;-71
2021/04/13 06:28:25;;;;;;;10.32;9.43;;;;;;;-0.10;76.89;96673.75;4973771;28;20023;-72
2021/04/13 06:30:51;;;;;;;10.55;9.65;;;;;;;-0.07;76.99;96668.47;4973996;28;20034;-71
2021/04/13 06:33:16;;;;;;;10.88;9.98;;;;;;;0.20;76.51;96671.00;4972396;28;20030;-71
2021/04/13 06:35:45;;;;;;;9.98;9.18;;;;;;;1.04;78.40;96672.28;4970534;28;20019;-72
2021/04/13 06:38:15;;;;;;;8.15;7.55;;;;;;;1.92;76.08;96667.91;4978557;28;20038;-71
2021/04/13 06:41:08;;;;;;;8.18;7.65;;;;;;;2.82;72.44;96670.06;4969567;28;20194;-71
2021/04/13 06:44:07;;;;;;;9.43;8.63;;;;;;;3.53;67.76;96667.66;4970187;28;20038;-71
2021/04/13 06:46:58;;;;;;;8.48;7.72;;;;;;;4.10;61.95;96661.41;4976941;28;20018;-71
2021/04/13 06:49:44;;;;;;;8.05;7.45;;;;;;;4.55;60.52;96667.78;4971870;28;20506;-71
2021/04/13 06:53:15;;;;;;;8.60;8.00;;;;;;;5.09;57.52;96664.03;4970961;28;20019;-71
2021/04/13 06:56:14;;;;;;;8.40;7.80;;;;;;;5.66;56.00;96665.25;4970944;28;20039;-72
2021/04/13 06:59:08;;;;;;;7.57;6.88;;;;;;;6.25;55.44;96655.81;4961669;28;20086;-70
2021/04/13 07:01:38;;;;;;;8.10;7.40;;;;;;;6.66;52.95;96654.25;4975535;28;20483;-71
2021/04/13 07:04:11;;;;;;;8.43;7.60;;;;;;;6.87;52.39;96662.56;4968374;28;20035;-70
2021/04/13 07:06:48;;;;;;;7.57;6.88;;;;;;;7.14;51.37;96657.34;4962392;28;20069;-71
2021/04/13 07:09:35;;;;;;;7.05;6.40;;;;;;;7.51;50.43;96648.09;4965924;28;20451;-70
2021/04/13 07:12:27;;;;;;;6.35;5.85;;;;;;;7.94;47.97;96640.03;4960166;28;20086;-71
2021/04/13 07:15:08;;;;;;;7.20;6.28;;;;;;;8.14;46.58;96643.09;4966646;28;20089;-71
2021/04/13 07:17:52;;;;;;;5.72;5.22;;;;;;;8.26;46.86;96647.50;4973769;28;20050;-70
2021/04/13 07:20:26;;;;;;;9.75;8.82;;;;;;;8.71;46.29;96638.38;4965571;28;20038;-71
2021/04/13 07:23:19;;;;;;;13.07;10.00;;;;;;;8.89;45.63;96636.28;4963543;28;20106;-70
2021/04/13 07:25:55;;;;;;;5.50;5.00;;;;;;;9.00;43.78;96636.34;4960194;28;20091;-70
2021/04/13 07:28:36;;;;;;;5.47;5.03;;;;;;;9.06;42.87;96634.22;4962312;28;20037;-70
2021/04/13 07:31:06;;;;;;;5.35;4.95;;;;;;;9.35;42.32;96629.50;4964069;28;20050;-70
2021/04/13 07:33:33;;;;;;;12.30;9.75;;;;;;;9.45;43.41;96630.53;4967780;28;20551;-70
2021/04/13 07:36:09;;;;;;;7.53;5.38;;;;;;;9.48;41.48;96628.63;4961805;28;20027;-70
2021/04/13 07:38:48;;;;;;;4.97;4.68;;;;;;;9.80;40.56;96628.88;4961407;28;20074;-70
2021/04/13 07:41:25;;;;;;;6.10;5.60;;;;;;;9.82;41.19;96620.84;4965879;28;20074;-70
2021/04/13 07:44:05;;;;;;;6.30;5.70;;;;;;;10.08;40.35;96631.25;4970941;28;20110;-70
2021/04/13 07:46:55;;;;;;;8.00;7.28;;;;;;;9.90;40.08;96618.50;4972123;28;20042;-68
2021/04/13 07:49:32;;;;;;;7.72;6.60;;;;;;;10.20;40.51;96622.41;4973504;28;20633;-69
2021/04/13 07:52:16;;;;;;;8.73;7.72;;;;;;;10.34;38.66;96629.25;4973550;28;20478;-70
2021/04/13 07:54:52;;;;;;;6.45;5.72;;;;;;;10.35;39.30;96623.03;4966736;28;20070;-70
2021/04/13 07:57:24;;;;;;;6.78;6.00;;;;;;;10.20;39.08;96627.66;4964708;28;20125;-70
2021/04/13 08:00:11;;;;;;;5.88;5.38;;;;;;;10.42;40.06;96619.00;4964638;28;20041;-70
2021/04/13 08:02:36;;;;;;;7.72;5.35;;;;;;;10.20;40.25;96617.13;4960866;28;20027;-69
2021/04/13 08:05:04;;;;;;;8.60;5.68;;;;;;;10.34;41.40;96625.78;4960712;28;20023;-70
2021/04/13 08:07:37;;;;;;;5.68;5.13;;;;;;;10.47;41.37;96621.25;4966292;28;20023;-70
2021/04/13 08:10:15;;;;;;;5.80;5.30;;;;;;;10.82;40.55;96622.09;4974480;28;20090;-70
2021/04/13 08:13:06;;;;;;;5.63;5.05;;;;;;;10.95;39.64;96614.09;4959796;28;20055;-70
2021/04/13 08:15:43;;;;;;;6.50;5.90;;;;;;;11.21;39.62;96613.81;4973614;28;20144;-70
2021/04/13 08:18:11;;;;;;;6.75;5.97;;;;;;;11.20;39.79;96615.59;4957866;28;20031;-70
2021/04/13 08:20:43;;;;;;;6.20;5.60;;;;;;;11.39;38.96;96616.75;4961528;28;20027;-70
2021/04/13 08:23:24;;;;;;;5.88;5.47;;;;;;;11.45;37.85;96619.75;4960912;28;20038;-69
2021/04/13 08:25:55;;;;;;;5.75;5.35;;;;;;;11.58;37.82;96624.84;4962249;28;20084;-69
2021/04/13 08:28:30;;;;;;;5.82;5.32;;;;;;;11.79;37.63;96612.66;4973424;28;20162;-69
2021/04/13 08:34:26;;;;;;;5.32;4.93;;;;;;;11.86;35.88;96616.47;4967800;28;20041;-70
2021/04/13 08:37:27;;;;;;;5.65;5.00;;;;;;;12.02;37.19;96608.97;4967250;28;20031;-69
2021/04/13 08:40:21;;;;;;;5.38;4.93;;;;;;;12.37;35.41;96614.88;4973849;28;20034;-70
2021/04/13 08:43:25;;;;;;;5.10;4.60;;;;;;;12.36;36.61;96607.09;4973878;28;20034;-70
2021/04/13 08:46:18;;;;;;;4.90;4.50;;;;;;;12.37;34.90;96603.50;4961724;28;20066;-70
2021/04/13 08:49:04;;;;;;;5.78;4.78;;;;;;;12.20;35.87;96604.94;4965430;28;20050;-70
2021/04/13 08:52:07;;;;;;;5.85;5.25;;;;;;;12.47;34.89;96601.72;4964443;28;21079;-70
2021/04/13 08:54:34;;;;;;;4.60;4.28;;;;;;;12.54;35.08;96607.31;4958966;28;20054;-70
2021/04/13 08:57:28;;;;;;;5.18;4.68;;;;;;;13.02;34.92;96592.63;4960555;28;20027;-67
2021/04/13 08:59:58;;;;;;;4.28;3.97;;;;;;;13.26;33.45;96596.72;4973574;28;20057;-65
2021/04/13 09:02:25;;;;;;;4.43;4.13;;;;;;;13.03;34.31;96597.75;4967081;28;20055;-68
2021/04/13 09:05:06;;;;;;;7.35;4.38;;;;;;;13.06;33.56;96598.50;4962711;28;20038;-69
2021/04/13 09:07:47;;;;;;;5.13;4.72;;;;;;;13.48;32.82;96595.63;4961176;28;20027;-70
2021/04/13 09:10:43;;;;;;;5.13;4.60;;;;;;;13.24;33.15;96594.19;4960469;28;20086;-70
2021/04/13 09:13:23;;;;;;;5.18;4.78;;;;;;;13.42;33.69;96590.88;4965753;28;20081;-68
2021/04/13 09:16:10;;;;;;;5.10;4.35;;;;;;;13.25;33.08;96601.16;4961636;28;20083;-68
2021/04/13 09:18:45;;;;;;;4.88;4.57;;;;;;;13.64;32.67;96594.25;4960081;28;20395;-69
2021/04/13 09:21:32;;;;;;;4.10;3.80;;;;;;;13.93;32.90;96596.09;4960271;28;20033;-69
2021/04/13 09:24:21;;;;;;;4.90;4.40;;;;;;;13.94;30.26;96600.41;4959075;28;20033;-69
2021/04/13 09:27:17;;;;;;;4.40;4.00;;;;;;;13.69;30.90;96597.31;4961163;28;20063;-69
2021/04/13 09:29:50;;;;;;;4.53;4.13;;;;;;;13.44;31.75;96592.47;4963379;28;20042;-69
2021/04/13 09:32:27;;;;;;;4.75;4.35;;;;;;;13.82;31.68;96583.84;4966517;28;20181;-69
2021/04/13 09:35:31;;;;;;;4.32;3.50;;;;;;;14.16;29.69;96580.72;4968285;28;20117;-69
2021/04/13 09:38:21;;;;;;;4.07;3.78;;;;;;;13.98;30.08;96586.72;4963080;28;20031;-69
2021/04/13 09:41:11;;;;;;;4.32;3.92;;;;;;;14.32;30.47;96583.59;4963659;28;20026;-68
2021/04/13 09:44:01;;;;;;;4.50;4.03;;;;;;;14.25;30.01;96587.78;4977577;28;20026;-69
2021/04/13 09:46:49;;;;;;;4.93;3.78;;;;;;;14.04;30.10;96586.19;4974870;28;20023;-69
2021/04/13 09:49:43;;;;;;;4.38;4.03;;;;;;;13.81;29.09;96590.06;4964502;28;20023;-69
2021/04/13 09:52:11;;;;;;;3.78;3.47;;;;;;;13.48;29.98;96587.69;4964019;28;20027;-69
2021/04/13 09:54:43;;;;;;;3.90;3.58;;;;;;;13.67;30.99;96580.75;4974142;28;20011;-69
2021/04/13 09:57:42;;;;;;;3.75;3.45;;;;;;;14.36;29.70;96576.19;4962793;28;20102;-70
2021/04/13 10:00:32;;;;;;;3.85;3.55;;;;;;;14.54;27.83;96568.34;4972837;28;20020;-69
2021/04/13 10:03:13;;;;;;;2.95;2.78;;;;;;;14.44;27.89;96575.47;4975535;28;20038;-69
2021/04/13 10:05:44;;;;;;;3.55;3.25;;;;;;;14.07;27.97;96578.94;4974940;28;20040;-69
2021/04/13 10:08:19;;;;;;;3.72;3.42;;;;;;;13.46;28.69;96576.44;4972575;28;20057;-70
2021/04/13 10:11:08;;;;;;;3.47;3.17;;;;;;;14.04;27.16;96580.88;4970802;28;20031;-70
2021/04/13 10:13:43;;;;;;;3.50;3.30;;;;;;;14.01;27.10;96581.16;4972966;28;20031;-69
2021/04/13 10:16:15;;;;;;;3.40;3.20;;;;;;;13.90;26.64;96570.72;4965468;28;20050;-69
2021/04/13 10:19:13;;;;;;;4.20;3.03;;;;;;;14.10;27.06;96568.88;4969078;28;20411;-69
2021/04/13 10:22:12;;;;;;;3.78;3.10;;;;;;;14.43;27.64;96568.50;4964710;28;20046;-69
2021/04/13 10:24:53;;;;;;;2.63;2.50;;;;;;;14.76;26.42;96561.03;4977761;28;20098;-69
2021/04/13 10:27:34;;;;;;;3.00;2.80;;;;;;;14.50;26.38;96564.31;4974611;28;20031;-69
2021/04/13 10:30:27;;;;;;;3.15;2.83;;;;;;;14.53;26.95;96556.06;4976375;28;20077;-69
2021/04/13 10:33:16;;;;;;;4.45;4.05;;;;;;;15.61;25.83;96557.28;4967702;28;20039;-69
2021/04/13 10:36:10;;;;;;;4.50;4.10;;;;;;;15.84;23.28;96562.13;4975213;28;20539;-69
2021/04/13 10:38:54;;;;;;;3.13;2.70;;;;;;;16.03;23.31;96561.13;4974443;28;20015;-69
2021/04/13 10:41:38;;;;;;;3.20;2.92;;;;;;;15.17;25.28;96556.19;4971862;28;20070;-69
2021/04/13 10:44:32;;;;;;;4.95;4.55;;;;;;;15.84;23.04;96562.13;4975119;28;20104;-69
2021/04/13 10:47:03;;;;;;;3.55;3.25;;;;;;;16.04;22.75;96558.31;4973933;28;20058;-70
2021/04/13 10:49:54;;;;;;;2.70;2.50;;;;;;;15.76;23.17;96553.06;4971936;28;20031;-69
2021/04/13 10:52:42;;;;;;;3.53;3.22;;;;;;;16.10;22.79;96556.03;4963137;28;20031;-69
2021/04/13 10:55:18;;;;;;;2.53;2.33;;;;;;;15.34;23.52;96545.72;4970211;28;20081;-69
2021/04/13 10:58:17;;;;;;;4.38;3.97;;;;;;;16.28;22.96;96550.66;4971758;28;20033;-69
2021/04/13 11:01:22;;;;;;;3.47;3.28;;;;;;;15.78;25.86;96546.78;4963404;28;20030;-69
2021/04/13 11:04:19;;;;;;;3.88;2.80;;;;;;;16.29;24.90;96544.34;4972360;28;20058;-69
2021/04/13 11:07:10;;;;;;;3.38;3.08;;;;;;;16.97;24.08;96547.16;4970561;28;20031;-69
2021/04/13 11:10:17;;;;;;;2.97;2.72;;;;;;;16.87;24.58;96545.44;4973914;28;20030;-69
2021/04/13 11:13:01;;;;;;;2.63;2.42;;;;;;;16.80;25.00;96546.25;4974738;28;20084;-69
2021/04/13 11:15:38;;;;;;;3.55;3.10;;;;;;;17.33;25.70;96538.94;4975951;28;20216;-69
2021/04/13 11:18:30;;;;;;;6.25;3.08;;;;;;;17.81;21.01;96544.50;4977108;28;20372;-68
2021/04/13 11:21:35;;;;;;;2.95;2.75;;;;;;;16.94;23.37;96527.03;4967148;28;20142;-68
2021/04/13 11:24:39;;;;;;;3.60;3.30;;;;;;;17.30;25.93;96524.16;4976128;28;20043;-69
2021/04/13 11:27:40;;;;;;;2.30;2.20;;;;;;;17.67;23.67;96531.81;4976650;28;20035;-68
2021/04/13 11:30:27;;;;;;;5.25;4.85;;;;;;;18.16;23.27;96525.66;4970773;28;20598;-69
2021/04/13 11:33:06;;;;;;;3.05;2.85;;;;;;;17.57;22.65;96526.66;4972516;28;20066;-68
2021/04/13 11:35:35;;;;;;;3.40;3.10;;;;;;;17.68;23.92;96521.03;4977679;28;20187;-68
2021/04/13 11:38:52;;;;;;;2.95;2.75;;;;;;;16.72;23.47;96513.31;4976242;28;20038;-68
2021/04/13 11:41:42;;;;;;;3.20;2.97;;;;;;;17.74;21.29;96516.88;4945611;28;20113;-67
2021/04/13 11:44:29;;;;;;;2.80;2.60;;;;;;;17.78;22.70;96525.34;4976694;28;20513;-68
2021/04/13 11:47:19;;;;;;;2.35;2.25;;;;;;;17.57;22.58;96511.53;4973760;28;20030;-68
2021/04/13 11:49:58;;;;;;;2.50;2.30;;;;;;;18.20;19.87;96515.50;4966912;28;20395;-68
2021/04/13 11:53:01;;;;;;;2.45;2.30;;;;;;;17.60;20.50;96511.19;4968383;28;20045;-68
2021/04/13 11:55:27;;;;;;;3.30;3.05;;;;;;;18.14;22.55;96501.03;4971989;28;20125;-68
2021/04/13 11:58:14;;;;;;;2.78;2.60;;;;;;;16.57;22.12;96525.53;4961528;28;20062;-68
2021/04/13 12:00:41;;;;;;;6.55;3.65;;;;;;;16.28;24.77;96516.97;4963454;28;20058;-68
2021/04/13 12:03:19;;;;;;;4.07;3.13;;;;;;;16.93;23.37;96513.91;4954942;28;20114;-69
2021/04/13 12:05:53;;;;;;;5.85;3.60;;;;;;;16.52;27.88;96506.59;4972992;28;20022;-69
2021/04/13 12:08:32;;;;;;;4.38;3.60;;;;;;;15.50;23.80;96523.84;4976296;28;20046;-68
2021/04/13 12:11:06;;;;;;;3.75;3.55;;;;;;;14.89;26.72;96521.72;4964235;28;20035;-69
2021/04/13 12:14:21;;;;;;;3.80;3.50;;;;;;;14.25;27.13;96524.22;4964845;28;20057;-70
2021/04/13 12:16:47;;;;;;;3.70;3.40;;;;;;;14.49;29.17;96520.25;4972377;28;20054;-69
2021/04/13 12:19:18;;;;;;;4.88;3.70;;;;;;;15.65;28.10;96525.94;4973451;28;20034;-68
2021/04/13 12:21:55;;;;;;;3.70;3.42;;;;;;;15.71;25.35;96501.44;4965805;28;20026;-70